createdAt,value
2022-10-05T00:02:15.503Z,62.46
2022-10-05T00:07:21.052Z,62.21
2022-10-05T00:12:26.355Z,62.27
2022-10-05T00:17:30.678Z,62.83
2022-10-05T00:22:36.006Z,62.94
2022-10-05T00:27:39.047Z,63.11
2022-10-05T00:32:42.497Z,63.18
2022-10-05T00:37:47.232Z,63.26
2022-10-05T00:43:06.350Z,63.70
2022-10-05T00:48:17.489Z,63.68
2022-10-05T00:53:43.163Z,63.68
2022-10-05T00:59:12.066Z,63.52
2022-10-05T01:04:28.556Z,63.51
2022-10-05T01:10:16.102Z,63.74
2022-10-05T01:15:22.057Z,64.10
2022-10-05T01:20:34.024Z,63.61
2022-10-05T01:25:39.634Z,63.87
2022-10-05T01:31:01.667Z,63.68
2022-10-05T01:36:15.380Z,63.60
2022-10-05T01:41:39.446Z,63.59
2022-10-05T01:46:57.234Z,63.59
2022-10-05T01:52:39.307Z,63.91
2022-10-05T01:58:07.934Z,64.14
2022-10-05T02:03:18.193Z,63.78
2022-10-05T02:08:24.677Z,63.90
2022-10-05T02:13:52.826Z,63.74
2022-10-05T02:19:08.699Z,63.75
2022-10-05T02:24:20.652Z,63.60
2022-10-05T02:29:29.894Z,63.97
2022-10-05T02:34:41.335Z,63.92
2022-10-05T02:39:59.687Z,63.69
2022-10-05T02:45:23.214Z,64.08
2022-10-05T02:51:07.603Z,63.85
2022-10-05T02:56:49.363Z,64.20
2022-10-05T03:01:59.615Z,64.13
2022-10-05T03:07:08.932Z,64.14
2022-10-05T03:12:39.830Z,64.12
2022-10-05T03:17:59.980Z,64.18
2022-10-05T03:23:08.746Z,64.11
2022-10-05T03:28:15.187Z,63.81
2022-10-05T03:33:34.639Z,64.15
2022-10-05T03:38:57.894Z,64.32
2022-10-05T03:44:22.108Z,64.01
2022-10-05T03:49:43.176Z,64.19
2022-10-05T03:54:50.589Z,64.58
2022-10-05T04:00:01.114Z,64.65
2022-10-05T04:05:12.542Z,64.56
2022-10-05T04:10:26.249Z,64.66
2022-10-05T04:15:40.535Z,64.42
2022-10-05T04:20:47.242Z,64.70
2022-10-05T04:25:59.636Z,64.75
2022-10-05T04:31:06.436Z,64.81
2022-10-05T04:36:24.419Z,64.89
2022-10-05T04:42:03.176Z,64.73
2022-10-05T04:47:15.529Z,64.91
2022-10-05T04:52:31.511Z,64.87
2022-10-05T04:57:53.228Z,64.95
2022-10-05T05:03:17.517Z,65.00
2022-10-05T05:08:32.517Z,65.22
2022-10-05T05:13:53.464Z,64.99
2022-10-05T05:19:18.157Z,65.04
2022-10-05T05:24:39.370Z,65.03
2022-10-05T05:29:48.896Z,65.09
2022-10-05T05:35:13.579Z,65.50
2022-10-05T05:40:31.136Z,65.29
2022-10-05T05:45:41.591Z,65.32
2022-10-05T05:50:53.904Z,65.22
2022-10-05T05:56:21.193Z,65.62
2022-10-05T06:01:37.691Z,65.63
2022-10-05T06:06:50.262Z,65.72
2022-10-05T06:11:57.191Z,65.87
2022-10-05T06:17:16.174Z,66.12
2022-10-05T06:22:41.030Z,65.83
2022-10-05T06:28:03.786Z,65.73
2022-10-05T06:33:20.591Z,65.87
2022-10-05T06:38:32.189Z,65.83
2022-10-05T06:43:46.459Z,65.99
2022-10-05T06:49:38.615Z,65.75
2022-10-05T06:54:47.616Z,65.63
2022-10-05T07:00:07.688Z,65.84
2022-10-05T07:05:40.864Z,65.43
2022-10-05T07:11:23.408Z,65.42
2022-10-05T07:16:45.665Z,65.48
2022-10-05T07:27:21.395Z,65.40
2022-10-05T07:32:34.022Z,65.23
2022-10-05T07:37:54.839Z,66.15
2022-10-05T07:43:07.827Z,66.69
2022-10-05T07:48:16.470Z,65.91
2022-10-05T07:53:25.687Z,63.97
2022-10-05T07:58:34.784Z,62.53
2022-10-05T08:03:38.605Z,61.86
2022-10-05T08:09:22.596Z,61.66
2022-10-05T08:14:35.072Z,61.68
2022-10-05T08:19:50.764Z,61.87
2022-10-05T08:25:04.812Z,61.56
2022-10-05T08:30:13.316Z,61.59
2022-10-05T08:35:39.515Z,61.25
2022-10-05T08:41:00.903Z,60.87
2022-10-05T08:46:20.013Z,61.04
2022-10-05T08:51:28.806Z,60.84
2022-10-05T08:56:34.440Z,60.63
2022-10-05T09:01:37.368Z,60.19
2022-10-05T09:06:57.407Z,59.86
2022-10-05T09:12:33.870Z,59.75
2022-10-05T09:17:48.952Z,59.54
2022-10-05T09:22:59.172Z,59.63
2022-10-05T09:28:12.015Z,59.26
2022-10-05T09:33:34.853Z,58.77
2022-10-05T09:38:56.127Z,58.78
2022-10-05T09:44:56.311Z,58.41
2022-10-05T09:50:17.582Z,58.28
2022-10-05T09:55:41.752Z,57.99
2022-10-05T10:01:09.231Z,57.68
2022-10-05T10:06:51.561Z,57.56
2022-10-05T10:12:31.547Z,57.82
2022-10-05T10:17:52.911Z,57.01
2022-10-05T10:23:10.115Z,56.87
2022-10-05T10:28:35.480Z,56.64
2022-10-05T10:34:06.054Z,56.54
2022-10-05T10:39:27.484Z,55.91
2022-10-05T10:45:23.228Z,55.99
2022-10-05T10:50:50.243Z,55.74
2022-10-05T10:56:14.538Z,56.20
2022-10-05T11:01:39.612Z,58.21
2022-10-05T11:07:13.682Z,57.38
2022-10-05T11:12:32.202Z,57.44
2022-10-05T11:17:58.774Z,56.66
2022-10-05T11:23:47.576Z,56.08
2022-10-05T11:29:17.408Z,55.25
2022-10-05T11:34:43.283Z,54.80
2022-10-05T11:40:12.361Z,54.53
2022-10-05T11:45:24.467Z,54.23
2022-10-05T11:51:08.931Z,54.19
2022-10-05T11:56:43.464Z,53.83
2022-10-05T12:01:49.147Z,53.98
2022-10-05T12:07:25.676Z,54.36
2022-10-05T12:12:36.867Z,54.74
2022-10-05T12:17:51.342Z,53.55
2022-10-05T12:23:33.640Z,53.13
2022-10-05T12:28:45.111Z,52.89
2022-10-05T12:34:02.038Z,52.68
2022-10-05T12:39:13.498Z,52.57
2022-10-05T12:44:21.838Z,52.64
2022-10-05T12:49:39.064Z,52.58
2022-10-05T12:55:11.005Z,52.75
2022-10-05T13:00:22.910Z,52.68
2022-10-05T13:05:52.935Z,52.55
2022-10-05T13:11:17.027Z,52.18
2022-10-05T13:16:38.749Z,51.94
2022-10-05T13:22:17.736Z,51.62
2022-10-05T13:27:27.764Z,51.13
2022-10-05T13:32:41.814Z,50.41
2022-10-05T13:37:53.625Z,49.90
2022-10-05T13:43:18.210Z,49.58
2022-10-05T13:48:42.261Z,49.53
2022-10-05T13:53:59.923Z,49.49
2022-10-05T13:59:05.656Z,49.48
2022-10-05T14:04:22.222Z,49.48
2022-10-05T14:09:31.637Z,49.42
2022-10-05T14:14:50.684Z,49.36
2022-10-05T14:19:57.167Z,49.16
2022-10-05T14:25:02.733Z,49.08
2022-10-05T14:30:08.632Z,49.16
2022-10-05T14:35:16.076Z,49.37
2022-10-05T14:40:27.034Z,49.35
2022-10-05T14:45:30.377Z,49.24
2022-10-05T14:50:33.409Z,49.23
2022-10-05T14:55:56.694Z,49.12
2022-10-05T15:01:07.056Z,49.21
2022-10-05T15:06:21.250Z,49.31
2022-10-05T15:11:46.422Z,49.34
2022-10-05T15:16:57.651Z,49.50
2022-10-05T15:22:32.891Z,49.68
2022-10-05T15:27:42.111Z,49.74
2022-10-05T15:32:55.554Z,49.65
2022-10-05T15:38:25.784Z,49.74
2022-10-05T15:43:47.571Z,49.91
2022-10-05T15:49:14.725Z,50.29
2022-10-05T15:54:44.505Z,50.54
2022-10-05T15:59:54.071Z,50.91
2022-10-05T16:05:12.876Z,51.22
2022-10-05T16:10:21.505Z,51.60
2022-10-05T16:15:36.280Z,51.88
2022-10-05T16:21:20.749Z,52.24
2022-10-05T16:26:38.694Z,52.30
2022-10-05T16:31:49.165Z,52.71
2022-10-05T16:37:09.436Z,52.84
2022-10-05T16:42:30.709Z,52.97
2022-10-05T16:47:51.832Z,53.04
2022-10-05T16:53:04.895Z,53.20
2022-10-05T16:58:38.441Z,53.54
2022-10-05T17:03:58.162Z,53.84
2022-10-05T17:09:27.092Z,54.46
2022-10-05T17:14:54.550Z,54.66
2022-10-05T17:20:23.808Z,55.09
2022-10-05T17:25:44.850Z,55.55
2022-10-05T17:30:54.120Z,55.85
2022-10-05T17:36:03.485Z,56.22
2022-10-05T17:41:12.201Z,56.57
2022-10-05T17:46:39.369Z,57.04
2022-10-05T17:52:00.766Z,57.35
2022-10-05T17:57:14.960Z,57.37
2022-10-05T18:02:39.535Z,57.60
2022-10-05T18:07:52.403Z,57.89
2022-10-05T18:13:00.855Z,57.97
2022-10-05T18:18:33.047Z,58.35
2022-10-05T18:23:37.017Z,58.53
2022-10-05T18:28:49.220Z,58.78
2022-10-05T18:34:10.009Z,58.93
2022-10-05T18:39:35.530Z,58.55
2022-10-05T18:44:50.007Z,58.69
2022-10-05T18:50:17.510Z,58.55
2022-10-05T18:55:32.757Z,58.96
2022-10-05T19:00:59.043Z,58.97
2022-10-05T19:06:24.677Z,58.95
2022-10-05T19:11:50.172Z,59.75
2022-10-05T19:16:53.318Z,59.81
2022-10-05T19:22:01.163Z,60.24
2022-10-05T19:27:16.743Z,59.55
2022-10-05T19:32:52.945Z,59.11
2022-10-05T19:43:31.946Z,59.28
2022-10-05T19:48:44.673Z,59.62
2022-10-05T19:53:50.149Z,60.10
2022-10-05T19:58:57.681Z,60.13
2022-10-05T20:04:01.415Z,60.14
2022-10-05T20:09:21.592Z,60.39
2022-10-05T20:14:31.445Z,60.64
2022-10-05T20:19:54.572Z,60.88
2022-10-05T20:25:28.977Z,61.10
2022-10-05T20:30:34.027Z,61.34
2022-10-05T20:35:37.076Z,61.73
2022-10-05T20:40:49.814Z,61.30
2022-10-05T20:45:54.121Z,61.36
2022-10-05T20:51:10.413Z,61.01
2022-10-05T20:56:13.725Z,60.77
2022-10-05T21:01:19.942Z,60.92
2022-10-05T21:06:26.393Z,61.19
2022-10-05T21:11:29.858Z,61.40
2022-10-05T21:16:34.179Z,61.16
2022-10-05T21:21:37.177Z,61.23
2022-10-05T21:26:41.618Z,61.13
2022-10-05T21:31:44.483Z,61.00
2022-10-05T21:36:47.635Z,60.76
2022-10-05T21:41:50.572Z,60.93
2022-10-05T21:46:55.065Z,60.81
2022-10-05T21:51:59.936Z,60.76
2022-10-05T21:57:03.350Z,60.58
2022-10-05T22:02:06.644Z,60.78
2022-10-05T22:07:18.477Z,60.76
2022-10-05T22:12:21.910Z,60.66
2022-10-05T22:17:28.137Z,60.54
2022-10-05T22:22:31.154Z,60.22
2022-10-05T22:27:35.675Z,60.13
2022-10-05T22:32:38.524Z,60.28
2022-10-05T22:37:41.614Z,60.31
2022-10-05T22:42:44.773Z,60.32
2022-10-05T22:47:48.169Z,60.30
2022-10-05T22:52:52.509Z,60.56
2022-10-05T22:57:55.380Z,60.65
2022-10-05T23:02:58.259Z,60.78
2022-10-05T23:08:02.493Z,60.80
2022-10-05T23:13:05.321Z,60.89
2022-10-05T23:18:08.170Z,61.02
2022-10-05T23:23:11.110Z,61.22
2022-10-05T23:28:14.144Z,61.38
2022-10-05T23:33:17.090Z,61.48
2022-10-05T23:38:20.376Z,61.64
2022-10-05T23:43:23.362Z,61.74
2022-10-05T23:48:27.139Z,62.10
2022-10-05T23:53:35.422Z,62.03
2022-10-05T23:58:38.667Z,62.22
